Flight Track Log - Related Links

Times and Time Zones

All times are in EDT time to prevent confusion due to time zone crossing. See the AM322 flight status page for this flight to view local times or setup timezone preferences in your user account.

Time Position Orientation Groundspeed Altitude Reporting Facility
EDT Latitude Longitude Course Direction KTS MPH feet Rate Location/Type
Sun 02:23:35 AM -38.5159 145.8518 306° West 168 193 5,100  Level Aus ATC (RADAR)
Sun 02:24:34 AM -38.4900 145.8070 309° West 162 186 6,200 1,135 Climbing FlightAware ADS-B
Sun 02:24:49 AM -38.4810 145.7980 322° Northwest 171 197 6,500 1,043 Climbing FlightAware ADS-B
Sun 02:25:20 AM -38.4650 145.7800 319° Northwest 185 213 7,000 1,071 Climbing FlightAware ADS-B
Sun 02:25:45 AM -38.4460 145.7600 320° Northwest 188 216 7,500 1,333 Climbing FlightAware ADS-B
Sun 02:26:14 AM -38.4280 145.7410 320° Northwest 185 213 8,200 1,333 Climbing FlightAware ADS-B
Sun 02:26:39 AM -38.4090 145.7210 320° Northwest 184 212 8,700 1,300 Climbing FlightAware ADS-B
Sun 02:27:14 AM -38.3860 145.6960 320° Northwest 187 215 9,500 982 Climbing FlightAware ADS-B
Sun 02:27:34 AM -38.3720 145.6820 322° Northwest 204 235 9,600 240 Climbing FlightAware ADS-B
Sun 02:28:04 AM -38.3490 145.6580 321° Northwest 217 250 9,700 771 Climbing FlightAware ADS-B
Sun 02:28:44 AM -38.3161 145.6255 321° Northwest 214 246 10,500 450 Climbing Aus ATC (RADAR)
Sun 02:28:44 AM -38.3190 145.6270 321° Northwest 225 259 10,000 -171 Descending FlightAware ADS-B
Sun 02:29:19 AM -38.2882 145.5939 321° Northwest 226 260 10,400  Climbing Aus ATC (RADAR)
Sun 02:29:26 AM -38.2860 145.5920 321° Northwest 235 270 10,000  Descending FlightAware ADS-B
Sun 02:30:09 AM -38.2450 145.5500 321° Northwest 236 272 10,400  Climbing Aus ATC (RADAR)
Sun 02:30:15 AM -38.2420 145.5460 321° Northwest 240 276 10,000 -585 Descending FlightAware ADS-B
Sun 02:30:50 AM -38.2120 145.5150 321° Northwest 241 277 10,000 286 Level FlightAware ADS-B
Sun 02:31:39 AM -38.1678 145.4692 321° Northwest 236 272 10,400  Climbing Aus ATC (RADAR)
Sun 02:32:07 AM -38.1600 145.4600 321° Northwest 231 266 10,000 -358 Descending FlightAware ADS-B
Sun 02:32:46 AM -38.1130 145.4110 321° Northwest 235 270 10,000 312 Level FlightAware ADS-B
Sun 02:33:24 AM -38.0792 145.3770 321° Northwest 232 267 10,400  Climbing Aus ATC (RADAR)
Sun 02:33:32 AM -38.0740 145.3720 321° Northwest 235 270 10,000 -1,500 Descending FlightAware ADS-B
Sun 02:33:56 AM -38.0530 145.3500 320° Northwest 250 288 9,600 -1,111 Descending FlightAware ADS-B
Sun 02:34:26 AM -38.0250 145.3210 321° Northwest 250 288 9,000 -857 Descending FlightAware ADS-B
Sun 02:34:52 AM -38.0050 145.3040 326° Northwest 241 277 8,800 -960 Descending FlightAware ADS-B
Sun 02:35:16 AM -37.9750 145.2840 326° Northwest 255 293 8,200 -973 Descending FlightAware ADS-B
Sun 02:35:29 AM -37.9604 145.2738 326° Northwest 253 291 8,200 -1,610 Level Aus ATC (RADAR)
Sun 02:35:57 AM -37.9330 145.2550 331° Northwest 259 298 7,100 -1,895 Descending FlightAware ADS-B
Sun 02:36:26 AM -37.9010 145.2340 333° Northwest 258 297 6,400 -1,500 Descending FlightAware ADS-B
Sun 02:36:41 AM -37.8850 145.2230 332° Northwest 256 295 6,000 -1,500 Descending FlightAware ADS-B
Sun 02:37:06 AM -37.8600 145.2060 332° Northwest 237 273 5,400 -1,418 Descending FlightAware ADS-B
Sun 02:37:36 AM -37.8330 145.1870 331° Northwest 223 257 4,700 -1,500 Descending FlightAware ADS-B
Sun 02:38:06 AM -37.8050 145.1690 333° Northwest 220 253 3,900 -1,500 Descending FlightAware ADS-B
Sun 02:38:32 AM -37.7830 145.1540 332° Northwest 208 239 3,300 -1,358 Descending FlightAware ADS-B
Sun 02:38:59 AM -37.7560 145.1570 North 197 227 2,700 -1,135 Descending FlightAware ADS-B
Sun 02:39:09 AM -37.7470 145.1590 10° North 197 227 2,600 -200 Descending FlightAware ADS-B
Sun 02:39:29 AM -37.7330 145.1500 333° Northwest 174 200 2,600  Level FlightAware ADS-B
Sun 02:39:45 AM -37.7280 145.1360 294° West 165 190 2,600  Level FlightAware ADS-B
Sun 02:40:09 AM -37.7240 145.1140 283° West 143 165 2,600 145 Level FlightAware ADS-B
Sun 02:41:08 AM -37.7263 145.0666 283° West 131 151 2,800 -191 Climbing Aus ATC (RADAR)
Sun 02:41:43 AM -37.7281 145.0373 266° West 142 163 2,300 -1,000 Descending Aus ATC (RADAR)
Sun 02:42:26 AM -37.7280 145.0160 266° West 142 163 1,500 -1,164 Descending FlightAware ADS-B
Sun 02:42:50 AM -37.7290 144.9840 268° West 135 155 1,000 -1,000 Descending FlightAware ADS-B
Sun 02:43:20 AM -37.7300 144.9600 267° West 129 148 600 -818 Descending FlightAware ADS-B
Sun 02:43:34 AM -37.7310 144.9500 263° West 124 143 400 -600 Descending FlightAware ADS-B
Sun 02:44:00 AM -37.7300 144.9330 274° West 105 121 200 -462 Descending FlightAware ADS-B
Sun 02:44:30 AM -37.7310 144.9160 266° West 89 102 -400 Descending FlightAware ADS-B
Sun 02:44:54 AM -37.7310 144.9060 270° West 75 86  Level FlightAware ADS-B
Sun 02:45:24 AM -37.7310 144.9000 270° West 11 13  Level FlightAware ADS-B
Sun 02:45:54 AM -37.7300 144.9000 360° North 12 14  Level FlightAware ADS-B

Login

Don't have an account? Register now (free) for customized features, flight alerts, and more!